Stations météo

Publicité
Puerto Plata, République Dominicaine (78457): Température de l'air & dewpoint: 11.11.2018 15:00:00 - 17.11.2018 15:00:00 (AST)Puerto Plata, République Dominicaine (78457): Vitesse du vent: 11.11.2018 15:00:00 - 17.11.2018 15:00:00 (AST)Puerto Plata, République Dominicaine (78457): Direction du vent: 11.11.2018 15:00:00 - 17.11.2018 15:00:00 (AST)Puerto Plata, République Dominicaine (78457): visibility: 11.11.2018 15:00:00 - 17.11.2018 15:00:00 (AST)
Date & Time tt [°C] td [°C] ff [km/h] ff [knt] dd vv [km]
17.11.2018 15:00:00 31,0 26,0 18 10 ENE 10
17.11.2018 14:00:00 32,0 26,0 15 8 ENE 10
17.11.2018 13:00:00 30,0 26,0 15 8 ENE 10
17.11.2018 12:00:00 32,0 25,0 9 5 ESE 10
17.11.2018 11:00:00 31,0 25,0 18 10 ESE 10
17.11.2018 10:00:00 29,0 25,0 15 8 ESE 10
17.11.2018 09:00:00 28,0 24,0 0 0 N 10
17.11.2018 08:00:00 23,0 22,0 0 0 N 10
17.11.2018 07:00:00 23,0 22,0 0 0 N 10
17.11.2018 06:00:00 - - - - - -
17.11.2018 05:00:00 24,0 24,0 0 0 N 10
17.11.2018 04:00:00 - - - - - -
17.11.2018 03:00:00 - - - - - -
17.11.2018 02:00:00 24,0 24,0 0 0 N 10
17.11.2018 01:00:00 - - - - - -
17.11.2018 00:00:00 - - - - - -
16.11.2018 23:00:00 28,0 24,0 0 0 N 10
16.11.2018 22:00:00 26,0 24,0 0 0 N 10
16.11.2018 21:00:00 26,0 25,0 0 0 N 10
16.11.2018 20:00:00 27,0 24,0 18 10 E 10
16.11.2018 19:00:00 27,0 24,0 18 10 E 10
16.11.2018 18:00:00 28,0 26,0 18 10 E 10
16.11.2018 17:00:00 30,0 25,0 18 10 E 10
16.11.2018 16:00:00 32,0 25,0 18 10 E 10
16.11.2018 15:00:00 33,0 25,0 18 10 E 10
16.11.2018 14:00:00 32,0 25,0 18 10 ESE 10
16.11.2018 13:00:00 30,0 24,0 18 10 ESE 10
16.11.2018 12:00:00 31,0 24,0 18 10 ESE 10
16.11.2018 11:00:00 30,0 24,0 18 10 ESE 10
16.11.2018 10:00:00 29,0 24,0 18 10 ESE 10
16.11.2018 09:00:00 28,0 24,0 9 5 ESE 10
16.11.2018 08:00:00 23,0 22,0 0 0 N 10
16.11.2018 07:00:00 24,0 23,0 0 0 N 10
16.11.2018 06:00:00 - - - - - -
16.11.2018 05:00:00 24,0 23,0 0 0 N 10
16.11.2018 04:00:00 - - - - - -
16.11.2018 03:00:00 - - - - - -
16.11.2018 02:00:00 24,0 23,0 0 0 N 10
16.11.2018 01:00:00 - - - - - -
16.11.2018 00:00:00 - - - - - -
15.11.2018 23:00:00 25,0 23,0 0 0 N 10
15.11.2018 22:00:00 25,0 23,0 0 0 N 10
15.11.2018 21:00:00 26,0 24,0 0 0 N 10
15.11.2018 20:00:00 26,0 24,0 0 0 N 10
15.11.2018 19:00:00 28,0 25,0 0 0 N 10
15.11.2018 18:00:00 28,0 25,0 18 10 ESE 10
15.11.2018 17:00:00 30,0 25,0 18 10 ESE 10
15.11.2018 16:00:00 30,0 25,0 15 8 E 10
15.11.2018 15:00:00 31,0 25,0 15 8 ESE 10
15.11.2018 14:00:00 31,0 25,0 15 8 ESE 10
15.11.2018 13:00:00 31,0 25,0 18 10 E 10
15.11.2018 12:00:00 30,0 24,0 11 6 E 10
15.11.2018 11:00:00 29,0 24,0 18 10 ESE 10
15.11.2018 10:00:00 28,0 24,0 11 6 ESE 10
15.11.2018 09:00:00 27,0 23,0 0 0 N 10
15.11.2018 08:00:00 24,0 22,0 0 0 N 10
15.11.2018 07:00:00 23,0 22,0 9 5 S 10
15.11.2018 06:00:00 - - - - - -
15.11.2018 05:00:00 22,0 21,0 0 0 N 10
15.11.2018 04:00:00 - - - - - -
15.11.2018 03:00:00 - - - - - -
15.11.2018 02:00:00 22,0 22,0 8 4 ESE 10
15.11.2018 01:00:00 - - - - - -
15.11.2018 00:00:00 - - - - - -
14.11.2018 23:00:00 22,0 22,0 11 6 E 10
14.11.2018 22:00:00 23,0 22,0 0 0 N 10
14.11.2018 21:00:00 24,0 23,0 0 0 N 10
14.11.2018 20:00:00 24,0 23,0 0 0 N 10
14.11.2018 19:00:00 24,0 23,0 0 0 N 10
14.11.2018 18:00:00 25,0 24,0 0 0 N 10
14.11.2018 17:00:00 25,0 24,0 0 0 N 10
14.11.2018 16:00:00 25,0 24,0 9 5 E 8
14.11.2018 15:00:00 28,0 25,0 18 10 ESE 8
14.11.2018 14:00:00 29,0 25,0 22 12 E 10
14.11.2018 13:00:00 29,0 25,0 18 10 NNE 10
14.11.2018 12:00:00 29,0 26,0 9 5 NNE 10
14.11.2018 11:00:00 27,0 26,0 11 6 E 10
14.11.2018 10:00:00 26,0 25,0 9 5 E 10
14.11.2018 09:00:00 25,0 24,0 0 0 N 10
14.11.2018 08:00:00 24,0 24,0 0 0 N 10
14.11.2018 07:00:00 24,0 24,0 0 0 N 10
14.11.2018 06:00:00 - - - - - -
14.11.2018 05:00:00 24,0 24,0 0 0 N 7
14.11.2018 04:00:00 - - - - - -
14.11.2018 03:00:00 - - - - - -
14.11.2018 02:00:00 24,0 24,0 22 12 E 5
14.11.2018 01:00:00 - - - - - -
14.11.2018 00:00:00 - - - - - -
13.11.2018 23:00:00 24,0 24,0 0 0 N 10
13.11.2018 22:00:00 23,0 23,0 0 0 N 7
13.11.2018 21:00:00 24,0 23,0 0 0 N 10
13.11.2018 20:00:00 24,0 23,0 9 5 ESE 10
13.11.2018 19:00:00 25,0 24,0 13 7 SE 7
13.11.2018 18:00:00 26,0 24,0 9 5 ESE 8
13.11.2018 17:00:00 28,0 25,0 22 12 E 10
13.11.2018 16:00:00 29,0 24,0 22 12 E 10
13.11.2018 15:00:00 30,0 25,0 18 10 E 10
13.11.2018 14:00:00 29,0 26,0 18 10 E 10
13.11.2018 13:00:00 30,0 24,0 18 10 E 10
13.11.2018 12:00:00 30,0 25,0 18 10 E 10
13.11.2018 11:00:00 29,0 25,0 16 9 E 10
13.11.2018 10:00:00 28,0 25,0 11 6 ESE 10
13.11.2018 09:00:00 27,0 24,0 11 6 SE 10
13.11.2018 08:00:00 24,0 23,0 9 5 ESE 10
13.11.2018 07:00:00 22,0 22,0 0 0 N 10
13.11.2018 06:00:00 - - - - - -
13.11.2018 05:00:00 22,0 22,0 0 0 N 10
13.11.2018 04:00:00 - - - - - -
13.11.2018 03:00:00 - - - - - -
13.11.2018 02:00:00 22,0 22,0 0 0 N 10
13.11.2018 01:00:00 - - - - - -
13.11.2018 00:00:00 - - - - - -
12.11.2018 23:00:00 24,0 24,0 0 0 N 10
12.11.2018 22:00:00 24,0 24,0 0 0 N 10
12.11.2018 21:00:00 25,0 25,0 0 0 N 10
12.11.2018 20:00:00 26,0 24,0 9 5 ESE 10
12.11.2018 19:00:00 27,0 25,0 9 5 E 8
12.11.2018 18:00:00 28,0 25,0 15 8 E 10
12.11.2018 17:00:00 29,0 25,0 18 10 ENE 10
12.11.2018 16:00:00 29,0 25,0 18 10 E 10
12.11.2018 15:00:00 29,0 26,0 22 12 ENE 10
12.11.2018 14:00:00 30,0 25,0 18 10 E 10
12.11.2018 13:00:00 30,0 25,0 18 10 E 10
12.11.2018 12:00:00 28,0 26,0 28 15 E 8
12.11.2018 11:00:00 30,0 26,0 15 8 E 10
12.11.2018 10:00:00 28,0 26,0 13 7 ESE 10
12.11.2018 09:00:00 26,0 25,0 0 0 N 10
12.11.2018 08:00:00 23,0 23,0 0 0 N 10
12.11.2018 07:00:00 23,0 23,0 0 0 N 10
12.11.2018 06:00:00 - - - - - -
12.11.2018 05:00:00 22,0 22,0 0 0 N 10
12.11.2018 04:00:00 - - - - - -
12.11.2018 03:00:00 - - - - - -
12.11.2018 02:00:00 22,0 22,0 0 0 N 10
12.11.2018 01:00:00 - - - - - -
12.11.2018 00:00:00 - - - - - -
11.11.2018 23:00:00 24,0 24,0 0 0 N 10
11.11.2018 22:00:00 24,0 24,0 0 0 N 10
11.11.2018 21:00:00 25,0 24,0 0 0 N 10
11.11.2018 20:00:00 25,0 25,0 0 0 N 10
11.11.2018 19:00:00 26,0 25,0 0 0 N 10
11.11.2018 18:00:00 26,0 25,0 0 0 N 10
11.11.2018 17:00:00 29,0 25,0 11 6 ENE 10
11.11.2018 16:00:00 28,0 26,0 9 5 NE 10
11.11.2018 15:00:00 29,0 26,0 9 5 NE 10

tt = Température de l'air
td = dewpoint
ff = Vitesse du vent
dd = Direction du vent
vv = visibility

stations d'obs. à proximité